Time;durP1;ratioP1;P1;durP2;ratioP2;P2;SDS_P1;SDS_P2;PMS_P1;PMS_P2;Temp;Humidity;BMP_temperature;BMP_pressure;BME280_temperature;BME280_humidity;BME280_pressure;Samples;Min_cycle;Max_cycle;Signal;HPM_P1;HPM_P2
2022/04/26 03:37:12;;;;;;;9.63;5.17;;;;;;;6.50;82.02;100004.84;1346727;91;21414;-89
2022/04/26 03:39:39;;;;;;;7.07;6.10;;;;;;;6.44;82.49;100002.73;1346506;91;21295;-89
2022/04/26 03:42:07;;;;;;;7.23;5.50;;;;;;;6.48;82.46;100012.05;1342177;91;21362;-90
2022/04/26 03:44:33;;;;;;;8.23;5.53;;;;;;;6.39;82.39;100004.92;1336070;93;21392;-89
2022/04/26 03:47:01;;;;;;;7.40;6.70;;;;;;;6.40;82.53;100017.13;1334062;93;21340;-88
2022/04/26 03:49:27;;;;;;;8.47;6.37;;;;;;;6.32;82.04;100016.45;1334509;92;21342;-89
2022/04/26 03:51:53;;;;;;;8.17;5.83;;;;;;;6.36;82.53;100034.09;1334946;92;22277;-88
2022/04/26 03:54:21;;;;;;;8.07;5.67;;;;;;;6.34;82.52;100031.61;1338692;92;21332;-90
2022/04/26 03:56:48;;;;;;;6.80;5.70;;;;;;;6.32;82.98;100036.98;1348320;92;22194;-88
2022/04/26 03:59:14;;;;;;;7.63;6.13;;;;;;;6.32;82.98;100034.36;1349135;91;21415;-89
2022/04/26 04:01:41;;;;;;;6.30;5.60;;;;;;;6.36;82.82;100040.22;1344908;91;22176;-89
2022/04/26 04:04:07;;;;;;;6.83;6.13;;;;;;;6.37;83.20;100041.04;1339444;91;21377;-89
2022/04/26 04:06:33;;;;;;;10.97;6.10;;;;;;;6.36;83.03;100047.23;1335258;92;21427;-89
2022/04/26 04:09:00;;;;;;;16.47;6.77;;;;;;;6.37;83.43;100052.38;1344971;92;21273;-89
2022/04/26 04:11:26;;;;;;;8.53;6.30;;;;;;;6.41;83.12;100053.77;1345206;92;21325;-88
2022/04/26 04:13:52;;;;;;;9.50;5.67;;;;;;;6.46;83.38;100056.03;1335703;93;22248;-88
2022/04/26 04:16:18;;;;;;;5.40;4.83;;;;;;;6.51;83.39;100058.62;1341818;92;21325;-88
2022/04/26 04:21:29;;;;;;;7.83;5.73;;;;;;;6.60;83.35;100060.95;1331387;95;22386;-88
2022/04/26 04:23:56;;;;;;;10.50;7.00;;;;;;;6.66;82.96;100068.30;1344995;91;21347;-88
2022/04/26 04:26:22;;;;;;;7.93;6.10;;;;;;;6.75;83.08;100064.88;1343867;92;21289;-89
2022/04/26 04:28:48;;;;;;;9.97;6.50;;;;;;;6.84;83.29;100065.89;1344793;91;21469;-89
2022/04/26 04:31:14;;;;;;;10.23;6.30;;;;;;;6.90;83.37;100067.98;1342555;91;21502;-89
2022/04/26 04:33:40;;;;;;;9.17;7.53;;;;;;;6.98;83.43;100073.91;1337468;91;21349;-88
2022/04/26 04:36:06;;;;;;;9.27;7.00;;;;;;;7.07;83.32;100073.59;1350119;91;21466;-87
2022/04/26 04:38:33;;;;;;;9.40;6.93;;;;;;;7.18;83.22;100082.70;1354249;91;21296;-87
2022/04/26 04:41:00;;;;;;;7.93;6.43;;;;;;;7.32;83.25;100083.64;1353823;90;21236;-88
2022/04/26 04:43:26;;;;;;;7.77;6.37;;;;;;;7.49;83.09;100083.47;1352810;91;22190;-87
2022/04/26 04:45:52;;;;;;;10.60;7.20;;;;;;;7.62;82.89;100084.05;1352528;90;21251;-86
2022/04/26 04:48:18;;;;;;;14.70;9.20;;;;;;;7.76;82.61;100095.14;1353412;92;22299;-85
2022/04/26 04:50:47;;;;;;;7.93;6.67;;;;;;;7.87;82.29;100091.88;1351223;90;21287;-84
2022/04/26 04:53:13;;;;;;;11.20;7.37;;;;;;;7.99;81.98;100093.89;1351341;91;21506;-82
2022/04/26 04:55:40;;;;;;;8.10;7.10;;;;;;;8.11;81.93;100103.34;1339355;92;22342;-82
2022/04/26 04:58:07;;;;;;;10.97;7.80;;;;;;;8.24;81.87;100110.12;1347405;91;21430;-83
2022/04/26 05:00:33;;;;;;;9.60;6.83;;;;;;;8.34;81.62;100097.75;1335681;92;21365;-86
2022/04/26 05:03:00;;;;;;;11.97;7.40;;;;;;;8.47;81.40;100107.55;1330671;91;21370;-86
2022/04/26 05:05:26;;;;;;;10.80;7.00;;;;;;;8.56;80.96;100105.87;1353693;91;21312;-85
2022/04/26 05:07:52;;;;;;;7.97;7.10;;;;;;;8.66;80.61;100101.41;1353953;91;22096;-86
2022/04/26 05:10:19;;;;;;;13.60;7.77;;;;;;;8.76;80.32;100106.65;1354174;91;21282;-86
2022/04/26 05:12:45;;;;;;;11.03;7.40;;;;;;;8.86;80.09;100103.50;1353833;91;21305;-84
2022/04/26 05:15:12;;;;;;;14.47;7.27;;;;;;;8.98;80.04;100094.91;1353390;91;21357;-84
2022/04/26 05:17:38;;;;;;;10.63;7.47;;;;;;;9.13;79.97;100102.69;1353640;91;21423;-84
2022/04/26 05:20:06;;;;;;;12.70;7.90;;;;;;;9.28;79.86;100100.39;1353739;91;21534;-83
2022/04/26 05:24:53;;;;;;;10.23;7.97;;;;;;;9.43;79.47;100108.14;1354081;91;22207;-83
2022/04/26 05:25:00;;;;;;;13.40;7.97;;;;;;;9.59;79.10;100109.33;1359209;90;21467;-82
2022/04/26 05:27:29;;;;;;;13.40;8.60;;;;;;;9.74;78.75;100105.18;1353658;91;21246;-83
2022/04/26 05:29:56;;;;;;;11.97;8.40;;;;;;;9.88;78.36;100108.63;1339440;92;21617;-84
2022/04/26 05:32:27;;;;;;;12.13;9.20;;;;;;;10.01;77.95;100105.62;1354004;90;21343;-84
2022/04/26 05:34:59;;;;;;;;;;;;;;;10.13;77.63;100108.36;1355796;91;22333;-83
2022/04/26 05:37:26;;;;;;;18.40;8.97;;;;;;;10.20;77.08;100113.86;1348024;91;20242;-83
2022/04/26 05:39:54;;;;;;;10.07;8.63;;;;;;;10.26;77.10;100111.92;1359445;91;21273;-84
2022/04/26 05:42:21;;;;;;;12.27;8.73;;;;;;;10.33;77.02;100118.30;1360364;91;21465;-84
2022/04/26 05:44:47;;;;;;;11.17;8.60;;;;;;;10.44;77.08;100115.88;1358042;90;21259;-83
2022/04/26 05:47:13;;;;;;;12.57;8.20;;;;;;;10.60;77.27;100123.13;1359712;90;21293;-84
2022/04/26 05:49:40;;;;;;;9.83;7.70;;;;;;;10.79;76.66;100134.84;1359551;90;21446;-85
2022/04/26 05:52:06;;;;;;;34.80;9.90;;;;;;;10.96;76.33;100128.29;1357924;91;21286;-84
2022/04/26 05:54:32;;;;;;;8.67;7.70;;;;;;;11.15;76.01;100133.86;1358608;90;21286;-85
2022/04/26 05:56:59;;;;;;;12.13;6.57;;;;;;;11.27;75.39;100128.11;1358635;90;21576;-85
2022/04/26 05:59:25;;;;;;;12.33;9.43;;;;;;;11.38;74.19;100133.62;1358293;91;21309;-85
2022/04/26 06:01:52;;;;;;;11.37;7.93;;;;;;;11.51;74.49;100136.66;1358259;90;22197;-85
2022/04/26 06:04:18;;;;;;;9.50;8.27;;;;;;;11.68;74.24;100138.02;1357659;90;21391;-85
2022/04/26 06:06:45;;;;;;;9.57;7.27;;;;;;;11.83;74.07;100140.89;1361433;90;21264;-85
2022/04/26 06:09:14;;;;;;;13.37;7.97;;;;;;;12.03;73.47;100140.95;1357931;90;22137;-85
2022/04/26 06:11:40;;;;;;;7.47;5.80;;;;;;;12.18;72.91;100139.80;1358868;90;21339;-85
2022/04/26 06:14:07;;;;;;;7.00;5.53;;;;;;;12.38;73.04;100144.29;1358567;91;21362;-84
2022/04/26 06:16:33;;;;;;;6.87;5.30;;;;;;;12.50;70.70;100144.28;1358776;90;22292;-83
2022/04/26 06:18:59;;;;;;;6.60;5.53;;;;;;;12.61;71.59;100149.75;1350782;92;21463;-84
2022/04/26 06:21:25;;;;;;;9.47;7.00;;;;;;;12.73;70.81;100152.89;1358215;90;21472;-84
2022/04/26 06:23:51;;;;;;;5.57;5.00;;;;;;;12.79;68.90;100157.02;1359802;90;22285;-84
2022/04/26 06:26:17;;;;;;;5.90;5.30;;;;;;;12.75;67.34;100159.69;1348920;91;21326;-84
2022/04/26 06:28:43;;;;;;;4.90;3.67;;;;;;;12.71;67.80;100164.99;1358777;90;21317;-84
2022/04/26 06:31:10;;;;;;;3.90;2.83;;;;;;;12.68;66.53;100160.52;1358137;90;21303;-84
2022/04/26 06:33:37;;;;;;;4.40;3.00;;;;;;;12.55;66.73;100159.22;1359392;91;21331;-85
2022/04/26 06:36:04;;;;;;;4.40;3.30;;;;;;;12.47;67.31;100159.21;1348707;90;22410;-84
2022/04/26 06:38:30;;;;;;;3.97;3.37;;;;;;;12.41;67.86;100165.19;1354049;90;21333;-84
2022/04/26 06:40:56;;;;;;;3.87;3.10;;;;;;;12.35;67.46;100160.55;1353838;91;21243;-84
2022/04/26 06:43:22;;;;;;;4.73;3.63;;;;;;;12.32;67.83;100171.49;1353571;90;21296;-84
2022/04/26 06:45:48;;;;;;;6.30;3.97;;;;;;;12.41;68.96;100175.80;1353536;90;21413;-84
2022/04/26 06:48:17;;;;;;;3.93;3.37;;;;;;;12.49;69.15;100173.16;1353937;91;21295;-84
2022/04/26 06:50:44;;;;;;;6.40;3.70;;;;;;;12.55;68.46;100176.47;1354455;90;22220;-82
2022/04/26 06:53:12;;;;;;;6.97;4.90;;;;;;;12.47;68.38;100180.45;1354165;90;22293;-83
2022/04/26 06:55:39;;;;;;;5.80;4.07;;;;;;;12.57;68.70;100183.78;1346267;92;21296;-92
2022/04/26 06:58:06;;;;;;;5.23;4.43;;;;;;;12.65;68.74;100182.42;1355835;90;21325;-92
2022/04/26 07:00:38;;;;;;;7.33;4.63;;;;;;;12.62;68.12;100188.06;1346447;91;21317;-91
2022/04/26 07:03:05;;;;;;;6.63;5.00;;;;;;;12.52;68.30;100190.08;1347086;92;21458;-90
2022/04/26 07:05:34;;;;;;;5.03;4.53;;;;;;;12.45;68.65;100198.35;1357178;90;21324;-89
2022/04/26 07:08:00;;;;;;;10.70;6.20;;;;;;;12.49;68.63;100202.36;1346997;92;21325;-92
2022/04/26 07:10:28;;;;;;;6.33;4.70;;;;;;;12.51;69.20;100199.02;1346899;92;21377;-91
2022/04/26 07:12:55;;;;;;;5.70;4.80;;;;;;;12.45;69.01;100201.00;1331287;93;21422;-89
2022/04/26 07:15:22;;;;;;;6.63;4.43;;;;;;;12.57;68.88;100210.80;1358498;90;22226;-88
2022/04/26 07:17:48;;;;;;;8.23;4.93;;;;;;;12.70;69.06;100208.98;1346272;91;21298;-90
2022/04/26 07:20:14;;;;;;;5.50;4.80;;;;;;;12.71;68.26;100215.95;1340876;92;21345;-91
2022/04/26 07:22:44;;;;;;;5.40;4.10;;;;;;;12.81;68.33;100217.44;1338196;93;21764;-90
2022/04/26 07:25:11;;;;;;;5.35;4.85;;;;;;;12.81;67.08;100216.11;1338131;94;21223;-89
2022/04/26 07:27:37;;;;;;;5.13;4.53;;;;;;;12.84;68.25;100221.59;1337459;91;21311;-90
2022/04/26 07:30:04;;;;;;;8.77;7.53;;;;;;;12.86;67.62;100225.75;1338473;91;21288;-90
2022/04/26 07:35:17;;;;;;;24.97;16.30;;;;;;;12.89;68.12;100221.93;1292550;95;21378;-91
2022/04/26 07:37:43;;;;;;;35.80;21.10;;;;;;;13.03;68.63;100225.23;1295267;94;21487;-91
2022/04/26 07:40:10;;;;;;;12.07;8.90;;;;;;;13.08;67.87;100229.52;1297136;95;21615;-91
2022/04/26 07:42:37;;;;;;;21.53;15.03;;;;;;;13.05;66.62;100232.52;1285074;97;21394;-91
2022/04/26 07:45:05;;;;;;;22.73;14.23;;;;;;;13.09;67.35;100240.50;1296014;97;22257;-88
2022/04/26 07:47:31;;;;;;;9.43;5.17;;;;;;;13.20;66.62;100242.45;1299958;95;21481;-89
2022/04/26 07:50:00;;;;;;;6.90;5.27;;;;;;;13.10;67.11;100252.77;1298070;95;21518;-89
2022/04/26 07:52:28;;;;;;;12.77;6.10;;;;;;;13.10;67.04;100248.78;1296762;95;21332;-87
2022/04/26 07:54:54;;;;;;;7.23;5.60;;;;;;;13.08;67.05;100256.09;1296233;97;21418;-88
2022/04/26 07:57:20;;;;;;;9.30;5.77;;;;;;;13.25;67.37;100258.73;1297603;95;21496;-92
2022/04/26 07:59:46;;;;;;;115.10;64.70;;;;;;;13.40;67.52;100257.56;1298902;95;22316;-89
2022/04/26 08:02:12;;;;;;;21.20;12.70;;;;;;;13.60;67.75;100259.33;1283435;97;21435;-88
2022/04/26 08:04:50;;;;;;;;;;;;;;;;;;;;;
2022/04/26 08:07:16;;;;;;;16.43;11.63;;;;;;;13.73;66.31;100256.97;1326649;97;21576;-88
2022/04/26 08:09:43;;;;;;;6.73;4.80;;;;;;;13.90;66.18;100261.73;1336050;92;21418;-88
2022/04/26 08:12:09;;;;;;;10.63;7.10;;;;;;;14.04;64.20;100261.47;1337016;92;21354;-90
2022/04/26 08:14:35;;;;;;;7.97;3.87;;;;;;;14.40;65.17;100267.92;1336247;92;21266;-88
2022/04/26 08:17:03;;;;;;;49.30;25.27;;;;;;;14.45;61.08;100266.89;1337468;93;21355;-89
2022/04/26 08:19:29;;;;;;;22.33;12.33;;;;;;;14.63;62.38;100271.13;1335897;93;21377;-90
2022/04/26 08:21:55;;;;;;;32.43;20.03;;;;;;;14.86;62.20;100270.61;1336180;93;21532;-87
2022/04/26 08:27:26;;;;;;;14.77;9.43;;;;;;;15.32;58.10;100279.86;1337161;92;21392;-88
2022/04/26 08:29:54;;;;;;;25.33;13.13;;;;;;;15.52;58.42;100283.33;1336232;93;21528;-88
2022/04/26 08:32:23;;;;;;;15.20;10.10;;;;;;;15.70;57.78;100288.33;1336416;93;21436;-89
2022/04/26 08:34:49;;;;;;;19.67;13.97;;;;;;;16.09;58.05;100288.02;1336925;93;21377;-89
2022/04/26 08:37:15;;;;;;;20.37;16.27;;;;;;;16.51;56.63;100279.73;1320936;94;21521;-88
2022/04/26 08:39:42;;;;;;;6.23;5.07;;;;;;;16.77;53.43;100278.38;1312144;95;21488;-89
2022/04/26 08:42:08;;;;;;;6.80;3.80;;;;;;;16.93;54.70;100283.98;1326676;93;21459;-88
2022/04/26 08:44:34;;;;;;;36.07;25.93;;;;;;;16.67;52.26;100275.49;1326555;93;22399;-90
2022/04/26 08:52:49;;;;;;;7.00;5.07;;;;;;;16.76;51.92;100276.70;1327607;96;21268;-83
2022/04/26 08:55:16;;;;;;;19.80;14.20;;;;;;;16.84;53.83;100279.28;1326103;93;22183;-83
2022/04/26 08:57:43;;;;;;;5.40;4.73;;;;;;;16.97;54.63;100277.22;1325966;93;21584;-87
2022/04/26 09:00:11;;;;;;;4.43;3.57;;;;;;;17.12;54.30;100279.31;1325890;93;21465;-87
2022/04/26 09:02:39;;;;;;;5.37;4.37;;;;;;;16.61;51.55;100286.12;1327431;93;21267;-89
2022/04/26 09:05:14;;;;;;;24.80;20.67;;;;;;;16.51;52.61;100278.41;1313146;94;21237;-90
2022/04/26 09:07:45;;;;;;;3.97;3.00;;;;;;;16.79;54.68;100281.18;1296847;96;23222;-90
2022/04/26 09:10:15;;;;;;;3.73;3.27;;;;;;;16.43;52.92;100283.38;1342504;91;21266;-87
2022/04/26 09:13:04;;;;;;;5.07;3.57;;;;;;;16.47;52.57;100283.82;1343345;92;21341;-91
2022/04/26 09:15:54;;;;;;;4.37;3.83;;;;;;;16.63;55.16;100284.92;1343941;91;21392;-85
2022/04/26 09:18:30;;;;;;;4.87;4.00;;;;;;;16.91;53.91;100288.17;1342222;92;21528;-86
2022/04/26 09:20:58;;;;;;;4.13;3.73;;;;;;;16.65;54.36;100282.86;1329148;93;21274;-85
2022/04/26 09:23:27;;;;;;;9.47;3.93;;;;;;;16.68;53.68;100284.33;1342757;92;21281;-85
2022/04/26 09:26:08;;;;;;;5.40;4.90;;;;;;;16.81;55.54;100289.84;1342445;92;21527;-86
2022/04/26 09:28:37;;;;;;;4.50;3.92;;;;;;;16.81;52.38;100286.34;1342264;92;22360;-85
2022/04/26 09:31:28;;;;;;;4.80;3.13;;;;;;;16.94;53.17;100282.44;1343089;92;21607;-85
2022/04/26 09:34:04;;;;;;;4.33;3.90;;;;;;;16.79;51.56;100283.85;1342245;91;21369;-85
2022/04/26 09:36:35;;;;;;;6.93;4.93;;;;;;;16.81;51.60;100294.37;1342105;92;22464;-85
2022/04/26 09:39:01;;;;;;;9.57;7.70;;;;;;;16.28;52.43;100289.77;1342787;91;22477;-85
2022/04/26 09:41:29;;;;;;;5.67;4.20;;;;;;;16.36;53.60;100285.65;1342887;92;21295;-85
2022/04/26 09:44:05;;;;;;;5.20;4.67;;;;;;;16.41;52.00;100288.59;1342735;92;21481;-85
2022/04/26 09:46:48;;;;;;;5.10;4.10;;;;;;;16.46;51.94;100278.17;1343213;92;21503;-85
2022/04/26 09:49:19;;;;;;;10.43;8.67;;;;;;;16.82;51.94;100283.98;1342806;91;21340;-85
2022/04/26 09:51:46;;;;;;;15.43;9.47;;;;;;;17.37;51.90;100278.34;1343172;92;21577;-85
2022/04/26 09:54:13;;;;;;;4.37;3.57;;;;;;;17.86;49.56;100277.42;1342584;92;21451;-85
2022/04/26 09:56:39;;;;;;;4.35;3.25;;;;;;;18.21;48.74;100275.52;1342572;92;21318;-85
2022/04/26 09:59:06;;;;;;;5.10;4.53;;;;;;;18.02;48.13;100275.75;1342299;92;21389;-85
2022/04/26 10:01:42;;;;;;;5.72;4.40;;;;;;;17.58;49.17;100272.94;1343155;92;21340;-85
2022/04/26 10:04:12;;;;;;;4.55;4.05;;;;;;;17.47;51.06;100269.47;1342940;92;21326;-85
2022/04/26 10:06:40;;;;;;;4.50;4.10;;;;;;;17.52;50.07;100273.73;1342093;93;22316;-85
2022/04/26 10:09:09;;;;;;;5.15;4.65;;;;;;;17.58;49.45;100276.95;1342547;92;21481;-85
2022/04/26 10:11:36;;;;;;;4.67;3.42;;;;;;;17.90;51.25;100277.87;1342428;92;21452;-85
2022/04/26 10:14:07;;;;;;;4.90;4.00;;;;;;;17.87;48.99;100279.09;1330424;93;21539;-85
2022/04/26 10:16:33;;;;;;;;;;;;;;;17.84;49.23;100278.64;1344363;92;21488;-85
2022/04/26 10:19:07;;;;;;;6.45;5.10;;;;;;;17.74;48.49;100278.98;1342605;91;20267;-85
2022/04/26 10:21:41;;;;;;;5.12;4.58;;;;;;;18.04;49.43;100271.03;1346587;92;21326;-85
2022/04/26 10:24:20;;;;;;;4.80;3.95;;;;;;;18.52;48.91;100265.28;1347802;91;21298;-85
2022/04/26 10:26:48;;;;;;;4.15;3.75;;;;;;;18.93;47.95;100270.00;1348091;91;22139;-85
2022/04/26 10:29:18;;;;;;;6.05;4.95;;;;;;;18.86;47.11;100273.19;1335820;92;21319;-85
2022/04/26 10:31:51;;;;;;;10.50;4.25;;;;;;;18.70;45.62;100269.03;1348026;91;21282;-85
2022/04/26 10:34:29;;;;;;;4.65;3.77;;;;;;;18.57;47.28;100272.20;1347734;92;21467;-85
2022/04/26 10:36:59;;;;;;;8.50;3.35;;;;;;;18.13;46.74;100273.53;1347763;92;21430;-86
2022/04/26 10:39:32;;;;;;;4.15;3.75;;;;;;;18.20;45.99;100271.17;1353784;91;22346;-86
2022/04/26 10:42:01;;;;;;;5.92;4.95;;;;;;;18.26;46.95;100270.36;1355540;91;22192;-86
2022/04/26 10:44:31;;;;;;;4.55;4.03;;;;;;;18.22;46.63;100267.78;1354755;91;21254;-85
2022/04/26 10:47:09;;;;;;;4.62;4.12;;;;;;;18.48;46.71;100261.67;1356002;91;21313;-85
2022/04/26 10:49:42;;;;;;;6.33;3.77;;;;;;;18.49;44.36;100265.17;1354830;91;22347;-85
2022/04/26 10:52:25;;;;;;;3.80;3.17;;;;;;;18.44;45.40;100260.92;1355376;90;21313;-85
2022/04/26 10:54:58;;;;;;;3.58;3.20;;;;;;;18.59;44.11;100269.62;1355397;91;21387;-86
2022/04/26 10:57:44;;;;;;;5.97;4.33;;;;;;;18.49;44.66;100267.33;1354743;91;21357;-86
2022/04/26 11:00:15;;;;;;;4.70;3.70;;;;;;;18.64;47.18;100264.98;1355634;91;21453;-86
2022/04/26 11:02:47;;;;;;;4.12;3.52;;;;;;;19.05;46.70;100269.39;1341568;91;22213;-86
2022/04/26 11:05:16;;;;;;;4.92;3.45;;;;;;;19.39;45.00;100276.34;1354959;91;21232;-86
2022/04/26 11:07:46;;;;;;;4.00;3.55;;;;;;;19.88;43.80;100266.12;1355763;91;21343;-86
2022/04/26 11:10:22;;;;;;;7.53;3.02;;;;;;;20.18;41.72;100261.88;1355120;91;22258;-86
2022/04/26 11:12:50;;;;;;;4.30;3.10;;;;;;;20.21;43.66;100264.13;1355305;91;22502;-85
2022/04/26 11:15:20;;;;;;;4.62;4.22;;;;;;;20.07;41.69;100262.55;1355482;91;21509;-85
2022/04/26 11:17:50;;;;;;;4.10;3.62;;;;;;;19.60;40.96;100269.92;1353900;91;21453;-86
2022/04/26 11:20:20;;;;;;;3.52;3.22;;;;;;;19.88;42.50;100268.33;1355549;91;21305;-86
2022/04/26 11:22:58;;;;;;;3.72;3.42;;;;;;;20.02;41.23;100265.04;1341236;92;21321;-85
2022/04/26 11:28:17;;;;;;;3.90;3.08;;;;;;;19.95;41.27;100263.73;1354837;91;21364;-86
2022/04/26 11:30:46;;;;;;;3.50;3.17;;;;;;;19.91;41.51;100267.05;1354440;92;21254;-86
2022/04/26 11:33:19;;;;;;;3.87;3.15;;;;;;;19.84;38.82;100271.92;1341758;92;21335;-86
2022/04/26 11:35:53;;;;;;;3.17;2.87;;;;;;;20.05;41.04;100268.64;1354881;91;21262;-86
2022/04/26 11:38:20;;;;;;;3.55;3.25;;;;;;;20.02;41.05;100263.70;1355382;91;21423;-85
2022/04/26 11:40:51;;;;;;;4.28;3.33;;;;;;;20.07;40.92;100263.88;1354515;91;22430;-85
2022/04/26 11:43:22;;;;;;;3.70;2.70;;;;;;;20.23;41.32;100264.74;1354752;91;21408;-85
2022/04/26 11:45:52;;;;;;;3.98;3.30;;;;;;;20.29;38.23;100267.09;1355362;91;22462;-86
2022/04/26 11:48:21;;;;;;;3.67;2.93;;;;;;;20.64;40.79;100254.59;1363099;91;22376;-85
2022/04/26 11:50:50;;;;;;;4.20;3.58;;;;;;;21.01;41.34;100259.59;1363251;90;21305;-86
2022/04/26 11:53:31;;;;;;;5.72;3.62;;;;;;;21.11;39.97;100260.42;1355661;90;21280;-86
2022/04/26 11:56:03;;;;;;;3.75;3.05;;;;;;;20.94;40.53;100263.69;1347656;92;21266;-85
2022/04/26 11:58:34;;;;;;;3.50;3.20;;;;;;;20.70;40.78;100262.61;1350522;91;22347;-85
2022/04/26 12:01:06;;;;;;;3.65;3.30;;;;;;;20.47;40.98;100263.14;1331502;93;21547;-84
2022/04/26 12:03:51;;;;;;;4.10;3.05;;;;;;;19.88;39.72;100260.27;1350825;93;21373;-85
2022/04/26 12:06:32;;;;;;;3.05;2.67;;;;;;;19.68;40.92;100268.39;1332904;92;22242;-85
2022/04/26 12:09:03;;;;;;;3.37;2.87;;;;;;;19.10;40.86;100264.20;1350194;91;21451;-87
2022/04/26 12:11:35;;;;;;;3.40;3.02;;;;;;;18.79;42.09;100258.11;1359445;90;22303;-86
2022/04/26 12:14:17;;;;;;;3.70;3.10;;;;;;;19.09;43.00;100256.67;1359863;90;21406;-87
2022/04/26 12:16:49;;;;;;;6.20;5.10;;;;;;;19.43;42.06;100259.33;1359386;91;21339;-87
2022/04/26 12:19:16;;;;;;;3.72;3.33;;;;;;;19.97;42.52;100260.84;1359344;91;21317;-85
2022/04/26 12:21:55;;;;;;;3.10;2.80;;;;;;;19.96;40.15;100257.31;1359426;90;22370;-89
2022/04/26 12:24:25;;;;;;;6.25;3.47;;;;;;;20.45;40.85;100261.71;1344877;92;21376;-88
2022/04/26 12:27:14;;;;;;;3.00;2.70;;;;;;;20.92;40.38;100256.34;1335937;94;21327;-88
2022/04/26 12:29:47;;;;;;;3.72;3.05;;;;;;;21.31;37.36;100247.59;1349181;92;22162;-89
2022/04/26 12:32:18;;;;;;;3.85;3.42;;;;;;;21.75;39.59;100248.91;1346707;91;21378;-87
2022/04/26 12:34:58;;;;;;;4.00;2.47;;;;;;;22.35;39.36;100242.77;1349828;91;22336;-87
2022/04/26 12:37:34;;;;;;;3.13;2.60;;;;;;;23.03;37.86;100242.89;1354801;91;21346;-86
2022/04/26 12:40:10;;;;;;;12.70;2.70;;;;;;;22.86;34.28;100237.33;1355192;90;21399;-87
2022/04/26 12:42:43;;;;;;;3.20;2.60;;;;;;;22.40;34.96;100238.34;1343655;90;22315;-88
2022/04/26 12:45:30;;;;;;;2.73;2.43;;;;;;;22.15;35.76;100237.09;1356561;90;21361;-88
2022/04/26 12:51:27;;;;;;;2.33;2.12;;;;;;;20.90;35.17;100238.25;1355778;90;21411;-88
2022/04/26 12:53:46;;;;;;;3.50;1.98;;;;;;;20.38;37.37;100235.41;1346846;92;22214;-89
2022/04/26 12:56:13;;;;;;;3.83;2.75;;;;;;;19.95;38.25;100238.74;1341782;92;21339;-88
2022/04/26 12:58:42;;;;;;;2.98;2.67;;;;;;;19.42;38.56;100241.56;1347363;91;22137;-89
2022/04/26 13:01:10;;;;;;;3.95;3.55;;;;;;;19.13;38.90;100232.94;1355139;93;21317;-90
2022/04/26 13:03:37;;;;;;;3.67;3.27;;;;;;;19.71;40.70;100226.34;1363369;90;22264;-88
2022/04/26 13:06:13;;;;;;;3.58;3.25;;;;;;;19.90;39.27;100231.31;1363444;90;21421;-89
2022/04/26 13:08:42;;;;;;;4.03;3.02;;;;;;;20.19;39.58;100223.20;1350275;92;22865;-88
2022/04/26 13:11:08;;;;;;;5.80;2.70;;;;;;;20.91;37.61;100219.71;1356457;91;22241;-88
2022/04/26 13:13:39;;;;;;;2.85;2.30;;;;;;;21.70;38.40;100208.39;1360877;91;21303;-88
2022/04/26 13:16:06;;;;;;;3.15;2.65;;;;;;;22.15;37.19;100217.42;1354096;91;21228;-88
2022/04/26 13:18:34;;;;;;;2.65;2.45;;;;;;;22.02;35.84;100217.91;1358003;91;21288;-88
2022/04/26 13:21:01;;;;;;;2.25;2.05;;;;;;;22.26;35.77;100209.93;1321158;96;21274;-87
2022/04/26 13:23:30;;;;;;;5.40;2.40;;;;;;;22.58;34.79;100211.00;1349991;91;21266;-87
2022/04/26 13:25:57;;;;;;;3.12;2.67;;;;;;;22.80;34.45;100207.23;1357481;91;22219;-86
2022/04/26 13:28:23;;;;;;;4.62;2.22;;;;;;;22.58;34.17;100209.66;1350414;91;21425;-86
2022/04/26 13:30:50;;;;;;;5.28;2.37;;;;;;;22.88;34.90;100217.69;1349552;91;21525;-87
2022/04/26 13:33:16;;;;;;;4.25;2.17;;;;;;;22.98;33.90;100216.05;1349435;90;21495;-86
2022/04/26 13:35:42;;;;;;;2.72;2.22;;;;;;;23.23;32.68;100220.41;1348915;92;21503;-86
2022/04/26 13:38:11;;;;;;;5.20;2.42;;;;;;;23.10;32.40;100226.03;1348926;92;23010;-86
2022/04/26 13:40:41;;;;;;;3.55;2.40;;;;;;;23.51;33.18;100229.66;1350175;91;21576;-87
2022/04/26 13:43:07;;;;;;;;;;;;;;;23.61;32.98;100228.51;1351134;91;21340;-86
2022/04/26 13:45:35;;;;;;;3.37;2.42;;;;;;;23.41;31.09;100225.66;1348651;92;20846;-84
2022/04/26 13:48:03;;;;;;;2.30;2.02;;;;;;;23.82;30.45;100222.51;1348341;90;21362;-87
2022/04/26 13:50:30;;;;;;;2.55;2.35;;;;;;;24.69;32.01;100220.05;1348789;91;22840;-87
2022/04/26 13:52:56;;;;;;;2.95;2.27;;;;;;;25.50;30.78;100216.91;1348978;92;22300;-90
2022/04/26 13:55:26;;;;;;;2.42;2.10;;;;;;;26.25;29.58;100216.70;1348702;92;21318;-90
2022/04/26 13:57:52;;;;;;;2.35;2.15;;;;;;;26.30;27.28;100222.73;1349006;91;21465;-87
2022/04/26 14:00:18;;;;;;;2.27;1.98;;;;;;;26.25;28.73;100219.95;1347899;92;21396;-89
2022/04/26 14:02:46;;;;;;;2.52;2.00;;;;;;;25.48;27.10;100214.98;1348223;90;21465;-88
2022/04/26 14:05:13;;;;;;;3.17;1.90;;;;;;;24.91;28.33;100214.69;1342538;92;21472;-92
2022/04/26 14:07:40;;;;;;;2.37;2.00;;;;;;;24.91;30.34;100217.93;1355608;91;21339;-91
2022/04/26 14:10:08;;;;;;;2.42;1.98;;;;;;;25.55;29.90;100215.62;1355724;91;21310;-91
2022/04/26 14:12:35;;;;;;;2.30;2.10;;;;;;;25.89;28.95;100215.49;1355495;91;21458;-91
2022/04/26 14:23:15;;;;;;;1.55;1.45;;;;;;;26.73;27.92;100207.39;1355595;91;22233;-89
2022/04/26 14:25:42;;;;;;;4.05;1.67;;;;;;;25.86;25.44;100216.00;1354421;91;21369;-90
2022/04/26 14:28:08;;;;;;;4.50;1.75;;;;;;;25.91;27.33;100213.91;1353926;91;21385;-90
2022/04/26 14:30:34;;;;;;;1.77;1.67;;;;;;;26.56;27.25;100207.52;1354157;91;22300;-91
2022/04/26 14:33:00;;;;;;;3.02;1.67;;;;;;;27.13;26.84;100211.44;1346907;91;21326;-91
2022/04/26 14:35:29;;;;;;;2.62;2.42;;;;;;;27.71;26.44;100206.87;1347142;91;21332;-90
2022/04/26 14:37:56;;;;;;;2.22;1.90;;;;;;;28.25;24.60;100203.74;1346916;91;23011;-91
2022/04/26 14:40:22;;;;;;;4.20;1.90;;;;;;;28.54;24.93;100208.17;1346959;91;21488;-90
2022/04/26 14:42:48;;;;;;;2.75;1.87;;;;;;;29.00;25.08;100205.41;1347348;91;21273;-91
2022/04/26 14:45:14;;;;;;;8.53;2.80;;;;;;;29.17;22.74;100201.02;1355164;91;22841;-90
2022/04/26 14:47:42;;;;;;;2.00;1.80;;;;;;;28.81;22.28;100199.45;1355443;91;21369;-90
2022/04/26 14:50:09;;;;;;;2.08;1.52;;;;;;;27.86;23.37;100198.78;1355279;91;21324;-91
2022/04/26 14:52:37;;;;;;;4.42;1.75;;;;;;;26.25;25.52;100198.25;1362839;91;21347;-90
2022/04/26 14:55:08;;;;;;;2.30;1.90;;;;;;;25.43;26.89;100200.00;1354155;91;21377;-90
2022/04/26 14:57:38;;;;;;;3.40;1.90;;;;;;;24.60;27.85;100203.09;1354808;91;21480;-91
2022/04/26 15:00:08;;;;;;;2.10;1.90;;;;;;;23.55;28.44;100203.80;1361513;90;22318;-92
2022/04/26 15:02:38;;;;;;;2.52;2.12;;;;;;;23.22;29.58;100202.58;1363278;90;22278;-93
2022/04/26 15:05:10;;;;;;;5.35;2.12;;;;;;;23.05;29.59;100204.35;1360279;89;21326;-92
2022/04/26 15:10:23;;;;;;;3.70;2.33;;;;;;;22.71;29.75;100198.12;1347195;92;21326;-92
2022/04/26 15:18:22;;;;;;;1.98;1.82;;;;;;;23.63;30.28;100200.20;1358227;91;21514;-92
2022/04/26 15:20:52;;;;;;;5.42;2.12;;;;;;;23.78;30.09;100200.25;1345470;92;21444;-92
2022/04/26 15:23:21;;;;;;;;;;;;;;;23.70;29.72;100197.89;1359109;92;22278;-92
2022/04/26 15:25:52;;;;;;;1.60;1.50;;;;;;;23.47;29.96;100196.87;1339161;93;20350;-93
2022/04/26 15:28:21;;;;;;;2.10;1.60;;;;;;;23.09;28.17;100191.48;1352786;91;22373;-91
2022/04/26 15:30:48;;;;;;;3.10;1.47;;;;;;;23.07;29.92;100195.47;1362024;91;21346;-92
2022/04/26 15:33:16;;;;;;;2.80;2.20;;;;;;;22.71;30.61;100193.27;1347236;92;21384;-84
2022/04/26 18:58:08;;;;;;;70.00;39.18;;;;;;;12.82;57.10;100324.50;1374478;85;22230;31
2022/04/26 19:00:36;;;;;;;98.37;56.33;;;;;;;12.74;57.32;100324.48;1358958;87;21284;31
2022/04/26 19:03:22;;;;;;;106.37;61.13;;;;;;;12.65;58.09;100323.64;1394847;85;22494;-91
2022/04/26 19:05:50;;;;;;;29.23;18.10;;;;;;;12.58;58.15;100322.15;1355716;91;22260;-93
2022/04/26 19:08:17;;;;;;;18.40;9.87;;;;;;;12.51;58.50;100318.47;1354947;90;22130;-93
2022/04/26 19:13:30;;;;;;;16.20;9.07;;;;;;;12.39;58.77;100315.79;1357135;87;21220;-92